sensor_id;sensor_type;location;lat;lon;timestamp;P1;durP1;ratioP1;P2;durP2;ratioP2
45620;SDS011;31345;51.522;10.702;2024-01-30T00:00:08;14.07;;;9.80;;
45620;SDS011;31345;51.522;10.702;2024-01-30T00:02:43;15.33;;;9.03;;
45620;SDS011;31345;51.522;10.702;2024-01-30T00:05:18;12.87;;;8.73;;
45620;SDS011;31345;51.522;10.702;2024-01-30T00:07:50;18.30;;;8.93;;
45620;SDS011;31345;51.522;10.702;2024-01-30T00:10:23;15.63;;;8.77;;
45620;SDS011;31345;51.522;10.702;2024-01-30T00:12:55;12.57;;;8.77;;
45620;SDS011;31345;51.522;10.702;2024-01-30T00:15:28;14.00;;;9.23;;
45620;SDS011;31345;51.522;10.702;2024-01-30T00:18:00;12.83;;;8.50;;
45620;SDS011;31345;51.522;10.702;2024-01-30T00:20:34;14.93;;;9.23;;
45620;SDS011;31345;51.522;10.702;2024-01-30T00:23:07;15.20;;;9.17;;
45620;SDS011;31345;51.522;10.702;2024-01-30T00:25:39;12.17;;;8.30;;
45620;SDS011;31345;51.522;10.702;2024-01-30T00:28:12;13.67;;;8.73;;
45620;SDS011;31345;51.522;10.702;2024-01-30T00:30:44;15.73;;;9.80;;
45620;SDS011;31345;51.522;10.702;2024-01-30T00:33:17;15.43;;;9.17;;
45620;SDS011;31345;51.522;10.702;2024-01-30T00:35:46;16.87;;;8.77;;
45620;SDS011;31345;51.522;10.702;2024-01-30T00:38:13;13.80;;;8.57;;
45620;SDS011;31345;51.522;10.702;2024-01-30T00:40:46;13.13;;;8.80;;
45620;SDS011;31345;51.522;10.702;2024-01-30T00:43:18;18.33;;;9.70;;
45620;SDS011;31345;51.522;10.702;2024-01-30T00:45:52;15.73;;;8.73;;
45620;SDS011;31345;51.522;10.702;2024-01-30T00:48:20;15.90;;;10.07;;
45620;SDS011;31345;51.522;10.702;2024-01-30T00:50:49;15.87;;;8.97;;
45620;SDS011;31345;51.522;10.702;2024-01-30T00:53:21;20.90;;;9.67;;
45620;SDS011;31345;51.522;10.702;2024-01-30T00:55:54;16.73;;;10.20;;
45620;SDS011;31345;51.522;10.702;2024-01-30T00:58:26;14.53;;;9.93;;
45620;SDS011;31345;51.522;10.702;2024-01-30T01:00:59;15.70;;;9.87;;
45620;SDS011;31345;51.522;10.702;2024-01-30T01:03:31;15.53;;;10.30;;
45620;SDS011;31345;51.522;10.702;2024-01-30T01:06:00;13.30;;;9.33;;
45620;SDS011;31345;51.522;10.702;2024-01-30T01:08:32;15.30;;;9.47;;
45620;SDS011;31345;51.522;10.702;2024-01-30T01:11:00;13.43;;;8.53;;
45620;SDS011;31345;51.522;10.702;2024-01-30T01:13:34;12.23;;;9.10;;
45620;SDS011;31345;51.522;10.702;2024-01-30T01:16:06;12.70;;;9.50;;
45620;SDS011;31345;51.522;10.702;2024-01-30T01:18:39;13.33;;;9.30;;
45620;SDS011;31345;51.522;10.702;2024-01-30T01:21:13;16.77;;;10.17;;
45620;SDS011;31345;51.522;10.702;2024-01-30T01:23:40;15.63;;;9.30;;
45620;SDS011;31345;51.522;10.702;2024-01-30T01:26:13;15.57;;;9.60;;
45620;SDS011;31345;51.522;10.702;2024-01-30T01:28:45;14.87;;;9.20;;
45620;SDS011;31345;51.522;10.702;2024-01-30T01:31:18;15.50;;;9.80;;
45620;SDS011;31345;51.522;10.702;2024-01-30T01:33:53;13.73;;;8.57;;
45620;SDS011;31345;51.522;10.702;2024-01-30T01:36:27;14.87;;;8.83;;
45620;SDS011;31345;51.522;10.702;2024-01-30T01:39:00;15.77;;;8.63;;
45620;SDS011;31345;51.522;10.702;2024-01-30T01:41:32;13.57;;;9.30;;
45620;SDS011;31345;51.522;10.702;2024-01-30T01:44:00;16.10;;;9.17;;
45620;SDS011;31345;51.522;10.702;2024-01-30T01:46:33;17.13;;;9.33;;
45620;SDS011;31345;51.522;10.702;2024-01-30T01:49:06;15.20;;;9.13;;
45620;SDS011;31345;51.522;10.702;2024-01-30T01:51:35;16.10;;;9.97;;
45620;SDS011;31345;51.522;10.702;2024-01-30T01:54:08;15.10;;;9.40;;
45620;SDS011;31345;51.522;10.702;2024-01-30T01:56:36;14.70;;;9.43;;
45620;SDS011;31345;51.522;10.702;2024-01-30T01:59:05;14.67;;;9.50;;
45620;SDS011;31345;51.522;10.702;2024-01-30T02:01:34;14.87;;;9.40;;
45620;SDS011;31345;51.522;10.702;2024-01-30T02:04:04;13.35;;;8.23;;
45620;SDS011;31345;51.522;10.702;2024-01-30T02:06:32;17.20;;;8.60;;
45620;SDS011;31345;51.522;10.702;2024-01-30T02:09:07;13.97;;;9.00;;
45620;SDS011;31345;51.522;10.702;2024-01-30T02:11:35;14.63;;;9.43;;
45620;SDS011;31345;51.522;10.702;2024-01-30T02:14:05;13.50;;;9.60;;
45620;SDS011;31345;51.522;10.702;2024-01-30T02:16:32;15.03;;;9.63;;
45620;SDS011;31345;51.522;10.702;2024-01-30T02:19:00;17.13;;;10.40;;
45620;SDS011;31345;51.522;10.702;2024-01-30T02:21:29;16.23;;;10.93;;
45620;SDS011;31345;51.522;10.702;2024-01-30T02:24:01;18.03;;;11.47;;
45620;SDS011;31345;51.522;10.702;2024-01-30T02:26:31;16.63;;;10.87;;
45620;SDS011;31345;51.522;10.702;2024-01-30T02:29:03;17.10;;;10.73;;
45620;SDS011;31345;51.522;10.702;2024-01-30T02:31:31;18.87;;;10.90;;
45620;SDS011;31345;51.522;10.702;2024-01-30T02:34:03;22.37;;;11.93;;
45620;SDS011;31345;51.522;10.702;2024-01-30T02:36:37;19.10;;;11.17;;
45620;SDS011;31345;51.522;10.702;2024-01-30T02:39:05;16.30;;;11.27;;
45620;SDS011;31345;51.522;10.702;2024-01-30T02:41:37;16.03;;;9.93;;
45620;SDS011;31345;51.522;10.702;2024-01-30T02:44:10;15.97;;;9.97;;
45620;SDS011;31345;51.522;10.702;2024-01-30T02:46:42;16.23;;;10.07;;
45620;SDS011;31345;51.522;10.702;2024-01-30T02:49:15;19.30;;;9.83;;
45620;SDS011;31345;51.522;10.702;2024-01-30T02:51:49;19.07;;;11.03;;
45620;SDS011;31345;51.522;10.702;2024-01-30T02:54:16;16.30;;;10.40;;
45620;SDS011;31345;51.522;10.702;2024-01-30T02:56:49;17.77;;;10.53;;
45620;SDS011;31345;51.522;10.702;2024-01-30T02:59:17;15.70;;;10.47;;
45620;SDS011;31345;51.522;10.702;2024-01-30T03:01:44;14.13;;;10.10;;
45620;SDS011;31345;51.522;10.702;2024-01-30T03:04:17;18.87;;;10.47;;
45620;SDS011;31345;51.522;10.702;2024-01-30T03:06:51;17.90;;;10.93;;
45620;SDS011;31345;51.522;10.702;2024-01-30T03:09:19;14.33;;;9.53;;
45620;SDS011;31345;51.522;10.702;2024-01-30T03:11:51;17.23;;;10.07;;
45620;SDS011;31345;51.522;10.702;2024-01-30T03:14:24;16.83;;;10.17;;
45620;SDS011;31345;51.522;10.702;2024-01-30T03:16:56;15.43;;;9.53;;
45620;SDS011;31345;51.522;10.702;2024-01-30T03:19:29;17.23;;;10.90;;
45620;SDS011;31345;51.522;10.702;2024-01-30T03:22:03;14.83;;;9.70;;
45620;SDS011;31345;51.522;10.702;2024-01-30T03:24:30;15.00;;;9.93;;
45620;SDS011;31345;51.522;10.702;2024-01-30T03:27:03;15.80;;;9.77;;
45620;SDS011;31345;51.522;10.702;2024-01-30T03:29:35;16.13;;;9.90;;
45620;SDS011;31345;51.522;10.702;2024-01-30T03:32:08;15.03;;;9.17;;
45620;SDS011;31345;51.522;10.702;2024-01-30T03:34:40;17.20;;;9.90;;
45620;SDS011;31345;51.522;10.702;2024-01-30T03:37:10;15.77;;;9.20;;
45620;SDS011;31345;51.522;10.702;2024-01-30T03:39:42;17.77;;;10.47;;
45620;SDS011;31345;51.522;10.702;2024-01-30T03:42:10;15.93;;;8.70;;
45620;SDS011;31345;51.522;10.702;2024-01-30T03:44:37;14.77;;;9.03;;
45620;SDS011;31345;51.522;10.702;2024-01-30T03:47:10;16.00;;;9.37;;
45620;SDS011;31345;51.522;10.702;2024-01-30T03:49:43;14.13;;;9.33;;
45620;SDS011;31345;51.522;10.702;2024-01-30T03:52:17;13.87;;;8.57;;
45620;SDS011;31345;51.522;10.702;2024-01-30T03:54:45;15.70;;;9.57;;
45620;SDS011;31345;51.522;10.702;2024-01-30T03:57:17;16.13;;;9.77;;
45620;SDS011;31345;51.522;10.702;2024-01-30T03:59:45;13.67;;;9.47;;
45620;SDS011;31345;51.522;10.702;2024-01-30T04:02:17;14.87;;;9.37;;
45620;SDS011;31345;51.522;10.702;2024-01-30T04:04:49;16.90;;;9.97;;
45620;SDS011;31345;51.522;10.702;2024-01-30T04:07:23;14.47;;;9.60;;
45620;SDS011;31345;51.522;10.702;2024-01-30T04:09:56;15.10;;;9.20;;
45620;SDS011;31345;51.522;10.702;2024-01-30T04:12:23;16.53;;;9.37;;
45620;SDS011;31345;51.522;10.702;2024-01-30T04:14:51;16.40;;;9.03;;
45620;SDS011;31345;51.522;10.702;2024-01-30T04:17:24;13.60;;;9.60;;
45620;SDS011;31345;51.522;10.702;2024-01-30T04:19:51;13.17;;;8.40;;
45620;SDS011;31345;51.522;10.702;2024-01-30T04:22:25;15.87;;;10.77;;
45620;SDS011;31345;51.522;10.702;2024-01-30T04:24:58;14.87;;;9.30;;
45620;SDS011;31345;51.522;10.702;2024-01-30T04:27:30;16.10;;;9.73;;
45620;SDS011;31345;51.522;10.702;2024-01-30T04:30:03;13.77;;;8.10;;
45620;SDS011;31345;51.522;10.702;2024-01-30T04:32:31;13.63;;;8.90;;
45620;SDS011;31345;51.522;10.702;2024-01-30T04:34:59;15.50;;;9.20;;
45620;SDS011;31345;51.522;10.702;2024-01-30T04:37:28;13.97;;;9.03;;
45620;SDS011;31345;51.522;10.702;2024-01-30T04:39:56;11.40;;;8.40;;
45620;SDS011;31345;51.522;10.702;2024-01-30T04:42:28;13.23;;;9.00;;
45620;SDS011;31345;51.522;10.702;2024-01-30T04:45:01;15.17;;;9.30;;
45620;SDS011;31345;51.522;10.702;2024-01-30T04:47:28;15.97;;;9.53;;
45620;SDS011;31345;51.522;10.702;2024-01-30T04:50:01;13.60;;;9.03;;
45620;SDS011;31345;51.522;10.702;2024-01-30T04:52:32;13.20;;;8.20;;
45620;SDS011;31345;51.522;10.702;2024-01-30T04:54:59;12.53;;;8.37;;
45620;SDS011;31345;51.522;10.702;2024-01-30T04:57:26;11.87;;;8.07;;
45620;SDS011;31345;51.522;10.702;2024-01-30T04:59:54;12.60;;;8.07;;
45620;SDS011;31345;51.522;10.702;2024-01-30T05:02:26;11.43;;;8.60;;
45620;SDS011;31345;51.522;10.702;2024-01-30T05:04:59;14.03;;;8.40;;
45620;SDS011;31345;51.522;10.702;2024-01-30T05:07:33;13.10;;;8.33;;
45620;SDS011;31345;51.522;10.702;2024-01-30T05:10:06;15.17;;;8.23;;
45620;SDS011;31345;51.522;10.702;2024-01-30T05:12:34;12.93;;;8.13;;
45620;SDS011;31345;51.522;10.702;2024-01-30T05:15:01;13.80;;;7.90;;
45620;SDS011;31345;51.522;10.702;2024-01-30T05:17:29;12.93;;;8.73;;
45620;SDS011;31345;51.522;10.702;2024-01-30T05:19:57;12.33;;;8.10;;
45620;SDS011;31345;51.522;10.702;2024-01-30T05:22:29;14.70;;;8.30;;
45620;SDS011;31345;51.522;10.702;2024-01-30T05:24:58;11.83;;;8.20;;
45620;SDS011;31345;51.522;10.702;2024-01-30T05:27:30;12.33;;;8.33;;
45620;SDS011;31345;51.522;10.702;2024-01-30T05:30:03;12.07;;;7.60;;
45620;SDS011;31345;51.522;10.702;2024-01-30T05:32:37;14.30;;;9.00;;
45620;SDS011;31345;51.522;10.702;2024-01-30T05:35:05;11.87;;;7.70;;
45620;SDS011;31345;51.522;10.702;2024-01-30T05:37:39;15.90;;;8.13;;
45620;SDS011;31345;51.522;10.702;2024-01-30T05:40:13;12.47;;;7.93;;
45620;SDS011;31345;51.522;10.702;2024-01-30T05:42:45;12.47;;;7.67;;
45620;SDS011;31345;51.522;10.702;2024-01-30T05:45:18;14.97;;;8.07;;
45620;SDS011;31345;51.522;10.702;2024-01-30T05:47:51;13.63;;;8.07;;
45620;SDS011;31345;51.522;10.702;2024-01-30T05:50:23;13.63;;;8.03;;
45620;SDS011;31345;51.522;10.702;2024-01-30T05:52:57;11.80;;;7.33;;
45620;SDS011;31345;51.522;10.702;2024-01-30T05:55:31;11.80;;;7.67;;
45620;SDS011;31345;51.522;10.702;2024-01-30T05:58:03;13.40;;;7.23;;
45620;SDS011;31345;51.522;10.702;2024-01-30T06:00:36;11.90;;;7.97;;
45620;SDS011;31345;51.522;10.702;2024-01-30T06:03:03;10.77;;;8.10;;
45620;SDS011;31345;51.522;10.702;2024-01-30T06:05:36;13.63;;;8.60;;
45620;SDS011;31345;51.522;10.702;2024-01-30T06:08:08;11.43;;;8.27;;
45620;SDS011;31345;51.522;10.702;2024-01-30T06:10:42;13.90;;;8.00;;
45620;SDS011;31345;51.522;10.702;2024-01-30T06:13:15;13.50;;;8.07;;
45620;SDS011;31345;51.522;10.702;2024-01-30T06:15:47;16.37;;;8.70;;
45620;SDS011;31345;51.522;10.702;2024-01-30T06:18:20;16.37;;;9.10;;
45620;SDS011;31345;51.522;10.702;2024-01-30T06:20:47;15.57;;;8.77;;
45620;SDS011;31345;51.522;10.702;2024-01-30T06:23:15;14.23;;;9.10;;
45620;SDS011;31345;51.522;10.702;2024-01-30T06:25:49;15.57;;;8.40;;
45620;SDS011;31345;51.522;10.702;2024-01-30T06:28:16;13.90;;;8.40;;
45620;SDS011;31345;51.522;10.702;2024-01-30T06:30:49;12.33;;;7.90;;
45620;SDS011;31345;51.522;10.702;2024-01-30T06:33:16;14.17;;;8.40;;
45620;SDS011;31345;51.522;10.702;2024-01-30T06:35:48;14.13;;;8.30;;
45620;SDS011;31345;51.522;10.702;2024-01-30T06:38:16;13.30;;;8.47;;
45620;SDS011;31345;51.522;10.702;2024-01-30T06:40:50;13.10;;;9.03;;
45620;SDS011;31345;51.522;10.702;2024-01-30T06:43:22;13.17;;;8.73;;
45620;SDS011;31345;51.522;10.702;2024-01-30T06:45:55;14.13;;;8.93;;
45620;SDS011;31345;51.522;10.702;2024-01-30T06:48:28;14.30;;;9.43;;
45620;SDS011;31345;51.522;10.702;2024-01-30T06:51:00;15.67;;;8.87;;
45620;SDS011;31345;51.522;10.702;2024-01-30T06:53:33;13.23;;;9.90;;
45620;SDS011;31345;51.522;10.702;2024-01-30T06:56:07;15.00;;;10.20;;
45620;SDS011;31345;51.522;10.702;2024-01-30T06:58:40;14.60;;;9.83;;
45620;SDS011;31345;51.522;10.702;2024-01-30T07:01:13;15.23;;;9.83;;
45620;SDS011;31345;51.522;10.702;2024-01-30T07:03:40;16.37;;;9.20;;
45620;SDS011;31345;51.522;10.702;2024-01-30T07:06:07;14.80;;;9.47;;
45620;SDS011;31345;51.522;10.702;2024-01-30T07:08:41;13.80;;;9.57;;
45620;SDS011;31345;51.522;10.702;2024-01-30T07:11:10;14.57;;;10.00;;
45620;SDS011;31345;51.522;10.702;2024-01-30T07:13:38;14.53;;;9.00;;
45620;SDS011;31345;51.522;10.702;2024-01-30T07:16:10;14.57;;;9.10;;
45620;SDS011;31345;51.522;10.702;2024-01-30T07:18:43;16.67;;;9.50;;
45620;SDS011;31345;51.522;10.702;2024-01-30T07:21:16;15.13;;;8.80;;
45620;SDS011;31345;51.522;10.702;2024-01-30T07:23:48;15.20;;;9.33;;
45620;SDS011;31345;51.522;10.702;2024-01-30T07:26:18;13.97;;;9.13;;
45620;SDS011;31345;51.522;10.702;2024-01-30T07:28:46;14.23;;;9.50;;
45620;SDS011;31345;51.522;10.702;2024-01-30T07:31:13;13.23;;;8.73;;
45620;SDS011;31345;51.522;10.702;2024-01-30T07:33:41;17.63;;;9.37;;
45620;SDS011;31345;51.522;10.702;2024-01-30T07:36:08;14.60;;;9.43;;
45620;SDS011;31345;51.522;10.702;2024-01-30T07:38:36;12.83;;;8.83;;
45620;SDS011;31345;51.522;10.702;2024-01-30T07:41:04;16.87;;;9.77;;
45620;SDS011;31345;51.522;10.702;2024-01-30T07:43:39;16.43;;;9.63;;
45620;SDS011;31345;51.522;10.702;2024-01-30T07:46:06;13.33;;;8.47;;
45620;SDS011;31345;51.522;10.702;2024-01-30T07:48:34;12.60;;;8.27;;
45620;SDS011;31345;51.522;10.702;2024-01-30T07:51:06;16.83;;;9.33;;
45620;SDS011;31345;51.522;10.702;2024-01-30T07:53:39;13.90;;;8.33;;
45620;SDS011;31345;51.522;10.702;2024-01-30T07:56:13;13.80;;;8.30;;
45620;SDS011;31345;51.522;10.702;2024-01-30T07:58:47;12.80;;;9.00;;
45620;SDS011;31345;51.522;10.702;2024-01-30T08:04:17;15.67;;;8.87;;
45620;SDS011;31345;51.522;10.702;2024-01-30T08:06:49;14.20;;;9.20;;
45620;SDS011;31345;51.522;10.702;2024-01-30T08:09:17;12.97;;;8.50;;
45620;SDS011;31345;51.522;10.702;2024-01-30T08:11:44;14.57;;;8.83;;
45620;SDS011;31345;51.522;10.702;2024-01-30T08:14:18;9.57;;;7.57;;
45620;SDS011;31345;51.522;10.702;2024-01-30T08:16:51;15.17;;;7.93;;
45620;SDS011;31345;51.522;10.702;2024-01-30T08:19:23;12.77;;;7.30;;
45620;SDS011;31345;51.522;10.702;2024-01-30T08:21:56;11.53;;;7.70;;
45620;SDS011;31345;51.522;10.702;2024-01-30T08:24:28;12.83;;;8.07;;
45620;SDS011;31345;51.522;10.702;2024-01-30T08:27:01;11.40;;;8.00;;
45620;SDS011;31345;51.522;10.702;2024-01-30T08:29:37;9.97;;;7.30;;
45620;SDS011;31345;51.522;10.702;2024-01-30T08:32:05;12.10;;;7.50;;
45620;SDS011;31345;51.522;10.702;2024-01-30T08:34:33;17.60;;;8.53;;
45620;SDS011;31345;51.522;10.702;2024-01-30T08:37:06;15.27;;;8.53;;
45620;SDS011;31345;51.522;10.702;2024-01-30T08:39:33;13.00;;;8.03;;
45620;SDS011;31345;51.522;10.702;2024-01-30T08:42:06;11.93;;;8.13;;
45620;SDS011;31345;51.522;10.702;2024-01-30T08:44:40;12.03;;;8.00;;
45620;SDS011;31345;51.522;10.702;2024-01-30T08:47:12;12.60;;;8.30;;
45620;SDS011;31345;51.522;10.702;2024-01-30T08:49:47;12.43;;;8.77;;
45620;SDS011;31345;51.522;10.702;2024-01-30T08:52:19;12.00;;;8.40;;
45620;SDS011;31345;51.522;10.702;2024-01-30T08:54:52;13.60;;;8.50;;
45620;SDS011;31345;51.522;10.702;2024-01-30T08:57:20;14.10;;;9.10;;
45620;SDS011;31345;51.522;10.702;2024-01-30T08:59:49;14.33;;;8.77;;
45620;SDS011;31345;51.522;10.702;2024-01-30T09:02:21;13.07;;;9.17;;
45620;SDS011;31345;51.522;10.702;2024-01-30T09:04:54;16.50;;;10.20;;
45620;SDS011;31345;51.522;10.702;2024-01-30T09:07:26;16.80;;;9.87;;
45620;SDS011;31345;51.522;10.702;2024-01-30T09:09:59;14.87;;;9.37;;
45620;SDS011;31345;51.522;10.702;2024-01-30T09:12:31;16.17;;;10.67;;
45620;SDS011;31345;51.522;10.702;2024-01-30T09:15:06;16.60;;;11.00;;
45620;SDS011;31345;51.522;10.702;2024-01-30T09:17:38;19.03;;;10.83;;
45620;SDS011;31345;51.522;10.702;2024-01-30T09:20:11;15.73;;;9.87;;
45620;SDS011;31345;51.522;10.702;2024-01-30T09:22:38;15.77;;;10.77;;
45620;SDS011;31345;51.522;10.702;2024-01-30T09:25:11;14.87;;;10.30;;
45620;SDS011;31345;51.522;10.702;2024-01-30T09:27:43;16.67;;;10.83;;
45620;SDS011;31345;51.522;10.702;2024-01-30T09:30:17;17.00;;;10.23;;
45620;SDS011;31345;51.522;10.702;2024-01-30T09:32:50;15.60;;;10.37;;
45620;SDS011;31345;51.522;10.702;2024-01-30T09:35:22;17.87;;;10.70;;
45620;SDS011;31345;51.522;10.702;2024-01-30T09:37:55;14.23;;;9.50;;
45620;SDS011;31345;51.522;10.702;2024-01-30T09:40:28;16.37;;;11.33;;
45620;SDS011;31345;51.522;10.702;2024-01-30T09:42:56;14.70;;;10.70;;
45620;SDS011;31345;51.522;10.702;2024-01-30T09:45:32;15.17;;;10.87;;
45620;SDS011;31345;51.522;10.702;2024-01-30T09:48:05;19.80;;;10.47;;
45620;SDS011;31345;51.522;10.702;2024-01-30T09:50:38;15.80;;;10.47;;
45620;SDS011;31345;51.522;10.702;2024-01-30T09:53:11;16.27;;;10.57;;
45620;SDS011;31345;51.522;10.702;2024-01-30T09:55:46;14.47;;;10.90;;
45620;SDS011;31345;51.522;10.702;2024-01-30T09:58:14;16.30;;;11.93;;
45620;SDS011;31345;51.522;10.702;2024-01-30T10:00:43;15.13;;;10.37;;
45620;SDS011;31345;51.522;10.702;2024-01-30T10:03:10;14.57;;;10.10;;
45620;SDS011;31345;51.522;10.702;2024-01-30T10:05:40;16.60;;;10.43;;
45620;SDS011;31345;51.522;10.702;2024-01-30T10:08:08;17.00;;;11.03;;
45620;SDS011;31345;51.522;10.702;2024-01-30T10:10:36;19.43;;;11.10;;
45620;SDS011;31345;51.522;10.702;2024-01-30T10:13:03;17.67;;;11.60;;
45620;SDS011;31345;51.522;10.702;2024-01-30T10:15:31;18.10;;;11.63;;
45620;SDS011;31345;51.522;10.702;2024-01-30T10:18:07;15.37;;;11.03;;
45620;SDS011;31345;51.522;10.702;2024-01-30T10:20:36;17.67;;;12.18;;
45620;SDS011;31345;51.522;10.702;2024-01-30T10:23:09;17.80;;;12.03;;
45620;SDS011;31345;51.522;10.702;2024-01-30T10:25:41;19.37;;;11.80;;
45620;SDS011;31345;51.522;10.702;2024-01-30T10:28:09;18.50;;;12.23;;
45620;SDS011;31345;51.522;10.702;2024-01-30T10:30:42;18.23;;;12.10;;
45620;SDS011;31345;51.522;10.702;2024-01-30T10:33:10;20.67;;;12.53;;
45620;SDS011;31345;51.522;10.702;2024-01-30T10:35:43;20.33;;;11.57;;
45620;SDS011;31345;51.522;10.702;2024-01-30T10:38:12;17.50;;;12.80;;
45620;SDS011;31345;51.522;10.702;2024-01-30T10:40:44;18.53;;;11.90;;
45620;SDS011;31345;51.522;10.702;2024-01-30T10:43:19;17.70;;;11.13;;
45620;SDS011;31345;51.522;10.702;2024-01-30T10:45:49;18.80;;;12.63;;
45620;SDS011;31345;51.522;10.702;2024-01-30T10:48:27;17.73;;;11.47;;
45620;SDS011;31345;51.522;10.702;2024-01-30T10:51:00;16.03;;;11.10;;
45620;SDS011;31345;51.522;10.702;2024-01-30T10:53:30;18.17;;;12.23;;
45620;SDS011;31345;51.522;10.702;2024-01-30T10:56:03;17.80;;;12.30;;
45620;SDS011;31345;51.522;10.702;2024-01-30T10:58:32;21.17;;;13.30;;
45620;SDS011;31345;51.522;10.702;2024-01-30T11:01:05;17.53;;;12.17;;
45620;SDS011;31345;51.522;10.702;2024-01-30T11:03:40;21.07;;;12.83;;
45620;SDS011;31345;51.522;10.702;2024-01-30T11:06:13;16.13;;;11.43;;
45620;SDS011;31345;51.522;10.702;2024-01-30T11:08:44;16.52;;;11.77;;
45620;SDS011;31345;51.522;10.702;2024-01-30T11:11:17;16.77;;;11.63;;
45620;SDS011;31345;51.522;10.702;2024-01-30T11:13:47;18.45;;;12.35;;
45620;SDS011;31345;51.522;10.702;2024-01-30T11:16:22;14.83;;;10.43;;
45620;SDS011;31345;51.522;10.702;2024-01-30T11:18:51;15.40;;;10.30;;
45620;SDS011;31345;51.522;10.702;2024-01-30T11:21:24;17.97;;;10.83;;
45620;SDS011;31345;51.522;10.702;2024-01-30T11:23:52;17.20;;;11.20;;
45620;SDS011;31345;51.522;10.702;2024-01-30T11:26:27;15.40;;;10.27;;
45620;SDS011;31345;51.522;10.702;2024-01-30T11:28:56;14.87;;;9.83;;
45620;SDS011;31345;51.522;10.702;2024-01-30T11:31:28;17.00;;;10.93;;
45620;SDS011;31345;51.522;10.702;2024-01-30T11:34:03;12.45;;;9.20;;
45620;SDS011;31345;51.522;10.702;2024-01-30T11:36:36;14.68;;;9.88;;
45620;SDS011;31345;51.522;10.702;2024-01-30T11:39:09;14.10;;;9.40;;
45620;SDS011;31345;51.522;10.702;2024-01-30T11:41:43;14.85;;;9.93;;
45620;SDS011;31345;51.522;10.702;2024-01-30T11:44:18;15.23;;;9.63;;
45620;SDS011;31345;51.522;10.702;2024-01-30T11:46:51;15.90;;;10.23;;
45620;SDS011;31345;51.522;10.702;2024-01-30T11:49:20;13.60;;;9.60;;
45620;SDS011;31345;51.522;10.702;2024-01-30T11:51:48;12.07;;;8.45;;
45620;SDS011;31345;51.522;10.702;2024-01-30T11:54:21;11.90;;;8.65;;
45620;SDS011;31345;51.522;10.702;2024-01-30T11:56:53;13.43;;;9.50;;
45620;SDS011;31345;51.522;10.702;2024-01-30T11:59:26;13.05;;;9.32;;
45620;SDS011;31345;51.522;10.702;2024-01-30T12:01:59;13.70;;;9.40;;
45620;SDS011;31345;51.522;10.702;2024-01-30T12:04:33;17.98;;;11.27;;
45620;SDS011;31345;51.522;10.702;2024-01-30T12:07:00;17.17;;;10.90;;
45620;SDS011;31345;51.522;10.702;2024-01-30T12:09:33;18.25;;;12.43;;
45620;SDS011;31345;51.522;10.702;2024-01-30T12:12:01;14.00;;;10.23;;
45620;SDS011;31345;51.522;10.702;2024-01-30T12:14:28;18.35;;;11.05;;
45620;SDS011;31345;51.522;10.702;2024-01-30T12:16:56;13.38;;;10.43;;
45620;SDS011;31345;51.522;10.702;2024-01-30T12:19:24;14.55;;;11.05;;
45620;SDS011;31345;51.522;10.702;2024-01-30T12:21:58;17.70;;;12.27;;
45620;SDS011;31345;51.522;10.702;2024-01-30T12:24:25;16.90;;;11.77;;
45620;SDS011;31345;51.522;10.702;2024-01-30T12:26:59;16.25;;;12.48;;
45620;SDS011;31345;51.522;10.702;2024-01-30T12:29:26;15.45;;;11.80;;
45620;SDS011;31345;51.522;10.702;2024-01-30T12:31:59;18.95;;;13.70;;
45620;SDS011;31345;51.522;10.702;2024-01-30T12:34:32;17.42;;;12.13;;
45620;SDS011;31345;51.522;10.702;2024-01-30T12:37:06;15.68;;;11.90;;
45620;SDS011;31345;51.522;10.702;2024-01-30T12:39:40;17.38;;;12.25;;
45620;SDS011;31345;51.522;10.702;2024-01-30T12:42:13;19.45;;;12.63;;
45620;SDS011;31345;51.522;10.702;2024-01-30T12:44:40;20.02;;;14.43;;
45620;SDS011;31345;51.522;10.702;2024-01-30T12:47:13;20.33;;;12.57;;
45620;SDS011;31345;51.522;10.702;2024-01-30T12:49:42;21.65;;;13.85;;
45620;SDS011;31345;51.522;10.702;2024-01-30T12:52:16;18.33;;;14.20;;
45620;SDS011;31345;51.522;10.702;2024-01-30T12:54:49;15.63;;;12.88;;
45620;SDS011;31345;51.522;10.702;2024-01-30T12:57:21;19.95;;;13.10;;
45620;SDS011;31345;51.522;10.702;2024-01-30T12:59:54;19.70;;;13.65;;
45620;SDS011;31345;51.522;10.702;2024-01-30T13:02:26;20.45;;;13.18;;
45620;SDS011;31345;51.522;10.702;2024-01-30T13:05:00;20.00;;;11.98;;
45620;SDS011;31345;51.522;10.702;2024-01-30T13:07:35;20.73;;;13.70;;
45620;SDS011;31345;51.522;10.702;2024-01-30T13:10:08;18.98;;;13.45;;
45620;SDS011;31345;51.522;10.702;2024-01-30T13:12:35;21.35;;;12.25;;
45620;SDS011;31345;51.522;10.702;2024-01-30T13:15:09;24.05;;;13.02;;
45620;SDS011;31345;51.522;10.702;2024-01-30T13:17:42;20.40;;;12.80;;
45620;SDS011;31345;51.522;10.702;2024-01-30T13:20:15;18.60;;;13.90;;
45620;SDS011;31345;51.522;10.702;2024-01-30T13:22:51;18.00;;;13.52;;
45620;SDS011;31345;51.522;10.702;2024-01-30T13:25:24;23.13;;;13.70;;
45620;SDS011;31345;51.522;10.702;2024-01-30T13:27:52;17.50;;;13.68;;
45620;SDS011;31345;51.522;10.702;2024-01-30T13:30:24;19.13;;;13.57;;
45620;SDS011;31345;51.522;10.702;2024-01-30T13:32:52;18.17;;;13.50;;
45620;SDS011;31345;51.522;10.702;2024-01-30T13:35:20;16.67;;;12.05;;
45620;SDS011;31345;51.522;10.702;2024-01-30T13:37:53;16.45;;;12.63;;
45620;SDS011;31345;51.522;10.702;2024-01-30T13:40:26;18.38;;;12.52;;
45620;SDS011;31345;51.522;10.702;2024-01-30T13:42:58;17.33;;;12.43;;
45620;SDS011;31345;51.522;10.702;2024-01-30T13:45:31;17.40;;;11.60;;
45620;SDS011;31345;51.522;10.702;2024-01-30T13:47:58;17.27;;;11.77;;
45620;SDS011;31345;51.522;10.702;2024-01-30T13:50:31;19.90;;;11.88;;
45620;SDS011;31345;51.522;10.702;2024-01-30T13:53:05;16.17;;;11.90;;
45620;SDS011;31345;51.522;10.702;2024-01-30T13:55:33;21.33;;;14.00;;
45620;SDS011;31345;51.522;10.702;2024-01-30T13:58:06;20.55;;;15.10;;
45620;SDS011;31345;51.522;10.702;2024-01-30T14:00:40;17.75;;;12.05;;
45620;SDS011;31345;51.522;10.702;2024-01-30T14:03:08;16.58;;;11.85;;
45620;SDS011;31345;51.522;10.702;2024-01-30T14:05:41;16.33;;;11.63;;
45620;SDS011;31345;51.522;10.702;2024-01-30T14:08:14;13.77;;;10.88;;
45620;SDS011;31345;51.522;10.702;2024-01-30T14:10:47;21.73;;;14.60;;
45620;SDS011;31345;51.522;10.702;2024-01-30T14:13:15;44.28;;;21.95;;
45620;SDS011;31345;51.522;10.702;2024-01-30T14:15:48;92.93;;;40.97;;
45620;SDS011;31345;51.522;10.702;2024-01-30T14:18:15;64.28;;;28.48;;
45620;SDS011;31345;51.522;10.702;2024-01-30T14:20:48;47.63;;;23.27;;
45620;SDS011;31345;51.522;10.702;2024-01-30T14:23:17;73.28;;;35.63;;
45620;SDS011;31345;51.522;10.702;2024-01-30T14:25:50;42.38;;;22.15;;
45620;SDS011;31345;51.522;10.702;2024-01-30T14:28:18;46.45;;;24.45;;
45620;SDS011;31345;51.522;10.702;2024-01-30T14:30:46;29.17;;;16.67;;
45620;SDS011;31345;51.522;10.702;2024-01-30T14:33:18;29.27;;;15.48;;
45620;SDS011;31345;51.522;10.702;2024-01-30T14:35:51;24.83;;;13.57;;
45620;SDS011;31345;51.522;10.702;2024-01-30T14:38:25;22.98;;;14.10;;
45620;SDS011;31345;51.522;10.702;2024-01-30T14:40:54;21.85;;;14.35;;